createdAt,value
2022-11-27T00:17:40.570Z,4.92
2022-11-27T00:37:40.544Z,5.49
2022-11-27T00:57:40.518Z,5.45
2022-11-27T01:17:40.504Z,4.57
2022-11-27T01:37:40.465Z,4.55
2022-11-27T01:57:40.432Z,4.34
2022-11-27T02:17:40.406Z,4.04
2022-11-27T02:37:40.378Z,3.04
2022-11-27T02:57:40.360Z,2.23
2022-11-27T03:17:40.352Z,1.65
2022-11-27T03:57:40.293Z,0.81
2022-11-27T04:17:40.270Z,0.55
2022-11-27T04:37:40.240Z,1.01
2022-11-27T04:57:40.229Z,1.09
2022-11-27T05:17:40.198Z,3.08
2022-11-27T05:37:40.204Z,3.5
2022-11-27T05:57:40.142Z,5.13
2022-11-27T06:17:40.124Z,5.48
2022-11-27T06:57:40.058Z,5.61
2022-11-27T07:17:40.031Z,5.89
2022-11-27T07:37:39.988Z,6.11
2022-11-27T07:57:39.964Z,6.53
2022-11-27T08:17:39.932Z,6.52
2022-11-27T08:37:39.890Z,7.25
2022-11-27T08:57:39.870Z,7.81
2022-11-27T09:17:39.832Z,8.1
2022-11-27T09:37:39.810Z,8.43
2022-11-27T09:57:39.767Z,8.62
2022-11-27T10:17:39.739Z,8.94
2022-11-27T10:37:39.696Z,9.3
2022-11-27T10:57:39.669Z,9.49
2022-11-27T11:17:39.625Z,9.69
2022-11-27T11:37:39.611Z,9.86
2022-11-27T11:57:39.565Z,10.05
2022-11-27T12:17:39.549Z,10.19
2022-11-27T12:37:39.552Z,10.33
2022-11-27T12:57:39.462Z,10.21
2022-11-27T13:17:39.500Z,9.81
2022-11-27T13:37:39.390Z,9.58
2022-11-27T13:57:39.348Z,9.55
2022-11-27T14:17:39.321Z,9.45
2022-11-27T14:37:39.281Z,9.04
2022-11-27T14:57:39.244Z,8.56
2022-11-27T15:17:39.222Z,8.21
2022-11-27T15:37:39.194Z,8.05
2022-11-27T15:57:39.157Z,8.1
2022-11-27T16:17:39.117Z,8.81
2022-11-27T16:37:39.082Z,8.75
2022-11-27T16:57:39.053Z,8.72
2022-11-27T17:17:40.191Z,8.68
2022-11-27T17:37:39.001Z,8.5
2022-11-27T17:57:38.969Z,8.56
2022-11-27T18:17:38.923Z,8.47
2022-11-27T18:37:38.883Z,8.1
2022-11-27T18:57:38.851Z,7.98
2022-11-27T19:17:38.819Z,8.13
2022-11-27T19:37:38.789Z,8.33
2022-11-27T19:57:38.747Z,8.6
2022-11-27T20:17:38.723Z,8.6
2022-11-27T20:37:38.691Z,8.36
2022-11-27T20:57:38.659Z,8.39
2022-11-27T21:17:38.618Z,8.2
2022-11-27T21:37:38.589Z,8.04
2022-11-27T21:57:38.552Z,7.85
2022-11-27T22:17:38.522Z,8.47
2022-11-27T22:37:38.484Z,8.74
2022-11-27T22:57:38.460Z,8.63
2022-11-27T23:17:38.419Z,8.54
2022-11-27T23:37:38.386Z,8.38
2022-11-27T23:57:38.347Z,7.8
